createdAt,value
2022-08-27T00:00:52.954Z,4.22
2022-08-27T00:03:55.727Z,4.18
2022-08-27T00:06:57.381Z,3.58
2022-08-27T00:09:59.743Z,4.15
2022-08-27T00:13:01.743Z,4.22
2022-08-27T00:16:06.717Z,4.15
2022-08-27T00:19:08.457Z,3.95
2022-08-27T00:22:10.720Z,3.78
2022-08-27T00:25:13.392Z,4.25
2022-08-27T00:28:15.240Z,4.50
2022-08-27T00:31:17.528Z,4.60
2022-08-27T00:34:19.309Z,4.40
2022-08-27T00:37:20.764Z,4.22
2022-08-27T00:40:23.231Z,4.07
2022-08-27T00:43:27.538Z,4.68
2022-08-27T00:46:34.884Z,4.15
2022-08-27T00:49:36.304Z,3.53
2022-08-27T00:52:57.463Z,3.63
2022-08-27T00:56:07.010Z,3.83
2022-08-27T00:59:08.516Z,3.33
2022-08-27T01:02:19.487Z,3.92
2022-08-27T01:05:25.352Z,3.35
2022-08-27T01:08:29.252Z,3.42
2022-08-27T01:11:31.777Z,3.95
2022-08-27T01:14:34.165Z,3.75
2022-08-27T01:17:38.952Z,3.53
2022-08-27T01:20:58.472Z,3.85
2022-08-27T01:24:25.762Z,3.75
2022-08-27T01:27:31.256Z,3.30
2022-08-27T01:30:32.898Z,4.05
2022-08-27T01:33:34.910Z,3.42
2022-08-27T01:36:36.964Z,3.50
2022-08-27T01:39:42.042Z,3.80
2022-08-27T01:42:47.423Z,3.05
2022-08-27T01:45:51.035Z,3.10
2022-08-27T01:48:53.199Z,3.17
2022-08-27T01:51:54.929Z,3.10
2022-08-27T01:54:56.775Z,3.45
2022-08-27T01:57:58.270Z,2.85
2022-08-27T02:01:08.088Z,3.20
2022-08-27T02:04:09.686Z,3.15
2022-08-27T02:07:11.801Z,3.22
2022-08-27T02:10:17.439Z,2.47
2022-08-27T02:13:19.181Z,3.22
2022-08-27T02:16:22.126Z,2.85
2022-08-27T02:19:23.978Z,3.65
2022-08-27T02:22:25.876Z,3.03
2022-08-27T02:25:29.886Z,2.75
2022-08-27T02:28:31.437Z,3.00
2022-08-27T02:31:33.235Z,2.95
2022-08-27T02:34:34.984Z,2.97
2022-08-27T02:37:37.918Z,2.70
2022-08-27T02:40:39.893Z,3.13
2022-08-27T02:43:41.447Z,3.30
2022-08-27T02:46:43.420Z,3.13
2022-08-27T02:49:44.926Z,3.78
2022-08-27T02:52:46.605Z,3.13
2022-08-27T02:55:49.092Z,2.60
2022-08-27T02:58:50.547Z,3.03
2022-08-27T03:01:52.140Z,3.10
2022-08-27T03:04:54.155Z,3.20
2022-08-27T03:07:55.631Z,3.47
2022-08-27T03:10:57.164Z,3.38
2022-08-27T03:14:01.456Z,3.65
2022-08-27T03:17:21.889Z,2.85
2022-08-27T03:20:23.820Z,4.00
2022-08-27T03:23:27.365Z,2.95
2022-08-27T03:26:30.497Z,3.22
2022-08-27T03:29:31.967Z,3.28
2022-08-27T03:32:37.233Z,3.45
2022-08-27T03:35:38.815Z,3.50
2022-08-27T03:38:40.282Z,3.30
2022-08-27T03:41:54.167Z,3.80
2022-08-27T03:44:56.525Z,2.95
2022-08-27T03:47:57.918Z,3.38
2022-08-27T03:51:05.049Z,3.00
2022-08-27T03:54:07.004Z,3.67
2022-08-27T03:57:08.640Z,3.30
2022-08-27T04:00:12.685Z,3.35
2022-08-27T04:03:14.406Z,3.33
2022-08-27T04:06:15.908Z,3.30
2022-08-27T04:09:17.908Z,3.42
2022-08-27T04:12:19.531Z,2.83
2022-08-27T04:15:21.430Z,3.65
2022-08-27T04:18:23.155Z,3.45
2022-08-27T04:21:24.553Z,3.70
2022-08-27T04:24:25.992Z,2.97
2022-08-27T04:27:28.142Z,4.00
2022-08-27T04:30:29.657Z,3.78
2022-08-27T04:33:32.342Z,3.20
2022-08-27T04:36:33.812Z,3.60
2022-08-27T04:39:35.456Z,3.70
2022-08-27T04:42:36.955Z,3.30
2022-08-27T04:45:46.210Z,3.10
2022-08-27T04:48:47.718Z,3.35
2022-08-27T04:51:51.107Z,3.10
2022-08-27T04:54:52.739Z,2.90
2022-08-27T04:57:54.140Z,3.30
2022-08-27T05:01:01.386Z,3.22
2022-08-27T05:04:03.288Z,3.28
2022-08-27T05:07:05.045Z,3.08
2022-08-27T05:10:06.978Z,2.72
2022-08-27T05:13:08.771Z,2.88
2022-08-27T05:16:13.418Z,3.33
2022-08-27T05:19:15.288Z,3.00
2022-08-27T05:22:16.803Z,3.25
2022-08-27T05:25:18.396Z,2.92
2022-08-27T05:28:21.542Z,2.80
2022-08-27T05:31:30.271Z,3.25
2022-08-27T05:34:31.822Z,2.80
2022-08-27T05:37:34.154Z,3.35
2022-08-27T05:40:36.258Z,2.97
2022-08-27T05:43:40.149Z,3.50
2022-08-27T05:46:41.627Z,3.15
2022-08-27T05:49:43.112Z,3.10
2022-08-27T05:52:44.514Z,2.85
2022-08-27T05:55:45.952Z,3.08
2022-08-27T05:59:07.719Z,3.38
2022-08-27T06:02:10.998Z,3.28
2022-08-27T06:05:12.531Z,3.05
2022-08-27T06:08:13.981Z,2.58
2022-08-27T06:11:15.654Z,3.67
2022-08-27T06:14:18.173Z,3.25
2022-08-27T06:17:19.691Z,3.10
2022-08-27T06:20:21.183Z,2.95
2022-08-27T06:23:28.262Z,3.30
2022-08-27T06:26:30.073Z,2.95
2022-08-27T06:29:31.556Z,3.28
2022-08-27T06:32:33.075Z,3.10
2022-08-27T06:35:35.131Z,3.00
2022-08-27T06:38:37.942Z,3.30
2022-08-27T06:41:41.088Z,9.68
2022-08-27T06:44:42.617Z,4.43
2022-08-27T06:47:44.049Z,3.83
2022-08-27T06:50:46.275Z,3.30
2022-08-27T06:53:48.334Z,2.88
2022-08-27T06:56:50.043Z,3.13
2022-08-27T06:59:51.754Z,2.97
2022-08-27T07:02:53.663Z,3.05
2022-08-27T07:06:05.105Z,2.90
2022-08-27T07:09:08.482Z,3.10
2022-08-27T07:12:09.961Z,3.17
2022-08-27T07:15:11.905Z,3.38
2022-08-27T07:18:13.418Z,2.50
2022-08-27T07:21:14.873Z,2.88
2022-08-27T07:24:16.424Z,3.40
2022-08-27T07:27:17.926Z,3.30
2022-08-27T07:30:19.467Z,3.55
2022-08-27T07:33:21.170Z,2.92
2022-08-27T07:36:23.724Z,3.22
2022-08-27T07:39:25.288Z,3.33
2022-08-27T07:42:45.135Z,3.13
2022-08-27T07:45:48.686Z,3.50
2022-08-27T07:48:51.262Z,3.80
2022-08-27T07:51:52.759Z,3.28
2022-08-27T07:54:54.380Z,3.50
2022-08-27T07:57:55.816Z,3.20
2022-08-27T08:00:57.513Z,3.20
2022-08-27T08:03:59.003Z,3.00
2022-08-27T08:07:00.444Z,3.00
2022-08-27T08:10:02.295Z,3.22
2022-08-27T08:13:04.719Z,3.13
2022-08-27T08:16:06.897Z,3.17
2022-08-27T08:19:09.317Z,3.15
2022-08-27T08:22:10.833Z,3.13
2022-08-27T08:25:14.033Z,3.25
2022-08-27T08:28:15.489Z,2.78
2022-08-27T08:31:17.103Z,3.05
2022-08-27T08:34:19.768Z,2.80
2022-08-27T08:37:21.429Z,2.72
2022-08-27T08:40:33.798Z,3.00
2022-08-27T08:43:42.388Z,2.97
2022-08-27T08:47:03.356Z,2.78
2022-08-27T08:50:11.247Z,2.65
2022-08-27T08:53:37.356Z,2.65
2022-08-27T08:57:04.081Z,2.60
2022-08-27T09:00:13.317Z,2.70
2022-08-27T09:03:16.402Z,2.55
2022-08-27T09:06:32.141Z,2.67
2022-08-27T09:10:22.057Z,2.38
2022-08-27T09:13:39.047Z,2.90
2022-08-27T09:16:40.692Z,2.70
2022-08-27T09:19:43.074Z,2.65
2022-08-27T09:23:01.466Z,2.63
2022-08-27T09:26:03.197Z,2.40
2022-08-27T09:29:20.073Z,2.67
2022-08-27T09:32:32.109Z,2.90
2022-08-27T09:35:42.334Z,2.40
2022-08-27T09:38:58.342Z,2.25
2022-08-27T09:42:02.285Z,2.80
2022-08-27T09:45:15.283Z,2.83
2022-08-27T09:48:21.344Z,2.53
2022-08-27T09:51:28.971Z,2.30
2022-08-27T09:54:46.551Z,2.60
2022-08-27T09:57:48.068Z,2.60
2022-08-27T10:01:16.944Z,3.03
2022-08-27T10:04:27.452Z,2.88
2022-08-27T10:07:31.801Z,2.38
2022-08-27T10:10:33.189Z,3.35
2022-08-27T10:13:51.892Z,2.78
2022-08-27T10:17:11.698Z,2.70
2022-08-27T10:20:31.014Z,2.53
2022-08-27T10:23:55.753Z,2.95
2022-08-27T10:27:03.285Z,2.53
2022-08-27T10:30:11.689Z,1.92
2022-08-27T10:33:27.253Z,2.90
2022-08-27T10:37:19.833Z,2.10
2022-08-27T10:40:59.292Z,2.08
2022-08-27T10:44:24.693Z,2.28
2022-08-27T10:47:49.562Z,2.45
2022-08-27T10:51:14.526Z,2.33
2022-08-27T10:54:35.257Z,2.30
2022-08-27T10:58:14.657Z,2.10
2022-08-27T11:01:38.963Z,2.20
2022-08-27T11:04:49.846Z,2.40
2022-08-27T11:07:56.269Z,2.30
2022-08-27T11:12:10.485Z,2.05
2022-08-27T11:18:05.591Z,2.20
2022-08-27T11:21:16.639Z,2.42
2022-08-27T11:24:34.971Z,2.42
2022-08-27T11:27:38.529Z,2.20
2022-08-27T11:30:52.854Z,2.35
2022-08-27T11:34:10.516Z,2.45
2022-08-27T11:37:37.417Z,2.00
2022-08-27T11:40:56.301Z,2.45
2022-08-27T11:43:59.841Z,2.10
2022-08-27T11:47:15.158Z,2.20
2022-08-27T11:50:20.330Z,2.17
2022-08-27T11:53:28.987Z,2.22
2022-08-27T11:56:30.413Z,2.10
2022-08-27T11:59:34.079Z,2.40
2022-08-27T12:02:35.568Z,2.03
2022-08-27T12:05:45.029Z,2.30
2022-08-27T12:08:46.873Z,1.92
2022-08-27T12:12:00.818Z,2.30
2022-08-27T12:15:33.076Z,2.05
2022-08-27T12:18:53.934Z,1.98
2022-08-27T12:22:04.558Z,2.28
2022-08-27T12:25:07.761Z,2.35
2022-08-27T12:28:10.257Z,2.10
2022-08-27T12:31:21.498Z,1.90
2022-08-27T12:34:26.020Z,2.15
2022-08-27T12:37:30.879Z,2.22
2022-08-27T12:40:39.463Z,1.83
2022-08-27T12:43:43.924Z,2.15
2022-08-27T12:46:47.335Z,2.30
2022-08-27T12:49:59.129Z,1.80
2022-08-27T12:53:23.725Z,2.28
2022-08-27T12:56:36.979Z,2.40
2022-08-27T12:59:44.071Z,2.33
2022-08-27T13:03:23.080Z,2.35
2022-08-27T13:06:43.890Z,1.85
2022-08-27T13:09:45.377Z,2.28
2022-08-27T13:12:48.548Z,2.33
2022-08-27T13:15:53.039Z,2.20
2022-08-27T13:18:54.733Z,2.08
2022-08-27T13:21:56.751Z,2.50
2022-08-27T13:25:02.772Z,2.10
2022-08-27T13:28:12.659Z,2.25
2022-08-27T13:34:21.982Z,2.20
2022-08-27T13:37:28.223Z,1.90
2022-08-27T13:40:36.793Z,2.15
2022-08-27T13:43:42.985Z,1.95
2022-08-27T13:46:48.760Z,2.10
2022-08-27T13:49:51.826Z,1.60
2022-08-27T13:53:20.444Z,2.03
2022-08-27T13:56:34.883Z,2.00
2022-08-27T13:59:43.096Z,1.85
2022-08-27T14:02:54.107Z,1.60
2022-08-27T14:05:59.310Z,1.90
2022-08-27T14:09:30.457Z,1.73
2022-08-27T14:12:35.385Z,1.95
2022-08-27T14:15:39.656Z,1.85
2022-08-27T14:18:59.823Z,1.92
2022-08-27T14:22:01.656Z,1.67
2022-08-27T14:25:04.082Z,1.45
2022-08-27T14:28:05.637Z,1.90
2022-08-27T14:31:07.204Z,1.85
2022-08-27T14:34:08.735Z,1.95
2022-08-27T14:37:10.520Z,1.60
2022-08-27T14:40:13.519Z,1.70
2022-08-27T14:43:15.821Z,1.90
2022-08-27T14:46:25.368Z,1.70
2022-08-27T14:49:34.825Z,1.60
2022-08-27T14:52:36.562Z,1.95
2022-08-27T14:55:38.089Z,2.15
2022-08-27T14:58:39.865Z,1.70
2022-08-27T15:01:41.639Z,1.98
2022-08-27T15:04:44.337Z,1.65
2022-08-27T15:07:49.434Z,1.63
2022-08-27T15:10:51.226Z,1.73
2022-08-27T15:13:54.091Z,1.90
2022-08-27T15:16:55.945Z,1.85
2022-08-27T15:19:57.616Z,2.30
2022-08-27T15:22:59.210Z,2.00
2022-08-27T15:26:00.687Z,1.52
2022-08-27T15:29:06.360Z,2.05
2022-08-27T15:32:12.807Z,2.13
2022-08-27T15:35:17.410Z,1.75
2022-08-27T15:38:18.878Z,2.20
2022-08-27T15:41:20.965Z,1.92
2022-08-27T15:44:22.384Z,1.67
2022-08-27T15:47:24.870Z,2.05
2022-08-27T15:50:28.665Z,1.70
2022-08-27T15:53:30.370Z,1.63
2022-08-27T15:56:34.557Z,1.67
2022-08-27T15:59:36.465Z,1.90
2022-08-27T16:02:40.233Z,1.80
2022-08-27T16:05:44.212Z,1.77
2022-08-27T16:08:45.680Z,1.85
2022-08-27T16:11:47.157Z,1.95
2022-08-27T16:14:48.998Z,2.20
2022-08-27T16:17:54.911Z,1.80
2022-08-27T16:20:58.460Z,1.63
2022-08-27T16:24:00.282Z,1.67
2022-08-27T16:27:01.737Z,1.98
2022-08-27T16:30:05.558Z,1.90
2022-08-27T16:33:08.044Z,1.40
2022-08-27T16:36:10.374Z,1.83
2022-08-27T16:39:11.805Z,1.73
2022-08-27T16:42:13.321Z,1.55
2022-08-27T16:45:17.724Z,1.60
2022-08-27T16:48:38.420Z,1.63
2022-08-27T16:51:40.065Z,1.60
2022-08-27T16:54:41.686Z,2.10
2022-08-27T16:57:43.357Z,2.00
2022-08-27T17:00:47.082Z,2.42
2022-08-27T17:04:17.321Z,1.67
2022-08-27T17:07:16.393Z,1.63
2022-08-27T17:10:18.586Z,1.95
2022-08-27T17:13:28.176Z,1.95
2022-08-27T17:16:31.889Z,1.90
2022-08-27T17:19:34.734Z,1.70
2022-08-27T17:22:36.401Z,1.90
2022-08-27T17:25:37.867Z,2.33
2022-08-27T17:28:40.823Z,1.70
2022-08-27T17:31:43.677Z,1.70
2022-08-27T17:34:45.165Z,2.00
2022-08-27T17:37:46.663Z,2.20
2022-08-27T17:40:52.202Z,2.00
2022-08-27T17:43:57.703Z,1.90
2022-08-27T17:47:02.879Z,1.45
2022-08-27T17:50:05.085Z,1.60
2022-08-27T17:53:07.939Z,1.67
2022-08-27T17:56:09.413Z,1.80
2022-08-27T17:59:10.866Z,1.63
2022-08-27T18:02:23.393Z,1.55
2022-08-27T18:05:25.853Z,1.40
2022-08-27T18:08:27.387Z,1.38
2022-08-27T18:11:28.859Z,1.58
2022-08-27T18:14:30.468Z,1.60
2022-08-27T18:17:33.230Z,1.50
2022-08-27T18:20:36.068Z,1.35
2022-08-27T18:23:38.272Z,1.00
2022-08-27T18:26:39.865Z,1.35
2022-08-27T18:29:42.210Z,1.60
2022-08-27T18:32:43.932Z,1.50
2022-08-27T18:35:45.651Z,1.48
2022-08-27T18:38:47.566Z,1.10
2022-08-27T18:41:49.269Z,1.70
2022-08-27T18:44:50.750Z,1.52
2022-08-27T18:47:54.059Z,1.23
2022-08-27T18:50:58.599Z,1.50
2022-08-27T18:54:00.152Z,1.40
2022-08-27T18:57:01.620Z,1.58
2022-08-27T19:00:06.014Z,1.38
2022-08-27T19:03:08.928Z,1.30
2022-08-27T19:06:11.559Z,1.70
2022-08-27T19:09:15.223Z,1.38
2022-08-27T19:12:17.599Z,1.33
2022-08-27T19:15:19.524Z,1.40
2022-08-27T19:18:24.517Z,1.40
2022-08-27T19:21:25.999Z,1.35
2022-08-27T19:24:27.587Z,1.25
2022-08-27T19:27:30.277Z,1.30
2022-08-27T19:30:31.806Z,1.30
2022-08-27T19:33:34.811Z,1.35
2022-08-27T19:36:40.632Z,1.50
2022-08-27T19:39:43.310Z,1.60
2022-08-27T19:42:44.816Z,1.20
2022-08-27T19:45:46.914Z,1.30
2022-08-27T19:48:48.594Z,1.30
2022-08-27T19:51:50.105Z,1.10
2022-08-27T19:55:12.713Z,1.20
2022-08-27T19:58:14.851Z,1.63
2022-08-27T20:01:16.637Z,1.15
2022-08-27T20:04:19.004Z,1.25
2022-08-27T20:07:21.805Z,1.20
2022-08-27T20:10:31.792Z,1.50
2022-08-27T20:13:38.539Z,1.63
2022-08-27T20:16:51.959Z,1.60
2022-08-27T20:19:53.435Z,1.63
2022-08-27T20:22:55.802Z,1.67
2022-08-27T20:26:01.223Z,1.45
2022-08-27T20:29:03.885Z,1.63
2022-08-27T20:32:05.351Z,1.30
2022-08-27T20:35:10.536Z,1.70
2022-08-27T20:38:12.163Z,1.63
2022-08-27T20:41:14.236Z,1.50
2022-08-27T20:44:16.985Z,1.23
2022-08-27T20:47:19.496Z,1.42
2022-08-27T20:50:22.059Z,1.38
2022-08-27T20:53:23.627Z,1.58
2022-08-27T20:56:25.086Z,1.45
2022-08-27T20:59:45.093Z,1.35
2022-08-27T21:02:46.705Z,1.45
2022-08-27T21:05:48.606Z,0.82
2022-08-27T21:08:50.850Z,1.42
2022-08-27T21:11:56.112Z,1.20
2022-08-27T21:14:58.844Z,1.23
2022-08-27T21:18:00.312Z,1.40
2022-08-27T21:21:04.467Z,1.63
2022-08-27T21:27:07.385Z,1.02
2022-08-27T21:30:10.951Z,1.48
2022-08-27T21:33:12.457Z,1.23
2022-08-27T21:36:13.965Z,1.40
2022-08-27T21:39:15.429Z,1.45
2022-08-27T21:42:17.075Z,1.58
2022-08-27T21:45:19.938Z,1.23
2022-08-27T21:48:21.913Z,1.30
2022-08-27T21:51:24.710Z,1.23
2022-08-27T21:54:26.584Z,1.30
2022-08-27T21:57:29.645Z,1.58
2022-08-27T22:00:50.466Z,1.17
2022-08-27T22:03:52.355Z,1.20
2022-08-27T22:06:54.825Z,1.50
2022-08-27T22:09:56.450Z,1.08
2022-08-27T22:12:59.105Z,1.40
2022-08-27T22:16:02.745Z,1.35
2022-08-27T22:19:04.435Z,1.17
2022-08-27T22:22:05.839Z,1.17
2022-08-27T22:25:08.530Z,1.50
2022-08-27T22:28:10.554Z,1.10
2022-08-27T22:31:12.340Z,1.27
2022-08-27T22:34:15.062Z,1.30
2022-08-27T22:37:17.318Z,1.52
2022-08-27T22:40:21.942Z,1.10
2022-08-27T22:43:23.589Z,1.20
2022-08-27T22:46:25.144Z,1.30
2022-08-27T22:49:26.786Z,1.52
2022-08-27T22:52:28.447Z,1.27
2022-08-27T22:55:30.026Z,1.38
2022-08-27T22:58:31.548Z,1.13
2022-08-27T23:01:33.378Z,1.50
2022-08-27T23:04:54.067Z,1.15
2022-08-27T23:07:57.058Z,1.08
2022-08-27T23:10:58.597Z,1.70
2022-08-27T23:14:00.178Z,1.33
2022-08-27T23:17:01.659Z,1.17
2022-08-27T23:20:06.310Z,1.10
2022-08-27T23:23:09.994Z,1.30
2022-08-27T23:26:30.616Z,1.40
2022-08-27T23:29:32.098Z,1.20
2022-08-27T23:32:33.583Z,1.15
2022-08-27T23:35:35.281Z,1.10
2022-08-27T23:38:36.812Z,1.40
2022-08-27T23:41:38.285Z,1.10
2022-08-27T23:44:39.879Z,1.75
2022-08-27T23:47:41.417Z,1.20
2022-08-27T23:50:44.286Z,1.15
2022-08-27T23:53:45.866Z,1.30
2022-08-27T23:56:47.984Z,1.30
2022-08-27T23:59:49.454Z,1.50
